Time;durP1;ratioP1;P1;durP2;ratioP2;P2;SDS_P1;SDS_P2;PMS_P1;PMS_P2;Temp;Humidity;BMP_temperature;BMP_pressure;BME280_temperature;BME280_humidity;BME280_pressure;Samples;Min_cycle;Max_cycle;Signal;HPM_P1;HPM_P2
2021/09/03 00:00:39;;;;;;;;;;;23.90;45.60;;;;;;496009;240;2186;-73
2021/09/03 00:02:40;;;;;;;;;;;24.20;45.60;;;;;;495954;240;1409;-73
2021/09/03 00:04:42;;;;;;;;;;;24.10;45.60;;;;;;495949;240;1064;-72
2021/09/03 00:06:43;;;;;;;;;;;24.00;45.50;;;;;;496013;240;1060;-73
2021/09/03 00:08:44;;;;;;;;;;;24.30;45.30;;;;;;496083;240;1050;-72
2021/09/03 00:10:46;;;;;;;;;;;23.80;45.90;;;;;;496072;240;1219;-72
2021/09/03 00:12:47;;;;;;;;;;;24.10;45.30;;;;;;496011;240;1015;-72
2021/09/03 00:14:49;;;;;;;;;;;24.00;46.00;;;;;;496094;240;989;-72
2021/09/03 00:16:50;;;;;;;;;;;23.70;46.10;;;;;;495949;240;1149;-72
2021/09/03 00:18:51;;;;;;;;;;;24.10;45.40;;;;;;495989;240;1007;-72
2021/09/03 00:20:53;;;;;;;;;;;24.00;45.90;;;;;;496079;240;2152;-72
2021/09/03 00:22:54;;;;;;;;;;;23.60;45.90;;;;;;496054;240;1033;-72
2021/09/03 00:24:55;;;;;;;;;;;24.20;45.20;;;;;;496084;240;1032;-73
2021/09/03 00:26:57;;;;;;;;;;;24.00;45.90;;;;;;495954;240;1097;-72
2021/09/03 00:28:58;;;;;;;;;;;23.70;45.80;;;;;;495967;240;1122;-72
2021/09/03 00:30:59;;;;;;;;;;;24.30;45.40;;;;;;495994;240;1055;-72
2021/09/03 00:33:01;;;;;;;;;;;23.80;46.00;;;;;;495952;240;1289;-72
2021/09/03 00:35:02;;;;;;;;;;;23.70;45.50;;;;;;495952;240;933;-72
2021/09/03 00:37:03;;;;;;;;;;;24.00;45.90;;;;;;495961;240;1093;-72
2021/09/03 00:39:05;;;;;;;;;;;23.80;45.80;;;;;;495997;240;1101;-72
2021/09/03 00:41:06;;;;;;;;;;;24.20;45.00;;;;;;495897;240;2103;-72
2021/09/03 00:43:07;;;;;;;;;;;24.00;45.70;;;;;;495929;240;992;-72
2021/09/03 00:45:09;;;;;;;;;;;23.70;46.00;;;;;;496084;240;1116;-73
2021/09/03 00:47:10;;;;;;;;;;;24.10;45.20;;;;;;495954;240;1120;-72
2021/09/03 00:49:11;;;;;;;;;;;24.00;45.70;;;;;;496067;240;1241;-72
2021/09/03 00:51:13;;;;;;;;;;;23.60;45.80;;;;;;495988;240;1150;-72
2021/09/03 00:53:14;;;;;;;;;;;24.10;45.00;;;;;;496082;240;1341;-72
2021/09/03 00:55:15;;;;;;;;;;;24.20;45.30;;;;;;496081;240;1051;-72
2021/09/03 00:57:17;;;;;;;;;;;23.70;45.80;;;;;;496037;240;1135;-72
2021/09/03 00:59:18;;;;;;;;;;;24.10;44.80;;;;;;495997;240;2173;-72
2021/09/03 01:01:20;;;;;;;;;;;23.80;45.90;;;;;;495950;239;1375;-73
2021/09/03 01:03:21;;;;;;;;;;;23.70;45.30;;;;;;496023;240;1419;-72
2021/09/03 01:05:23;;;;;;;;;;;24.10;45.10;;;;;;495944;240;1060;-73
2021/09/03 01:07:24;;;;;;;;;;;23.50;45.70;;;;;;495976;240;1286;-73
2021/09/03 01:09:25;;;;;;;;;;;23.80;45.40;;;;;;495997;240;944;-73
2021/09/03 01:11:27;;;;;;;;;;;24.00;45.20;;;;;;495942;240;1098;-73
2021/09/03 01:13:28;;;;;;;;;;;23.70;45.70;;;;;;495921;240;1047;-73
2021/09/03 01:15:29;;;;;;;;;;;24.10;44.60;;;;;;496104;240;1023;-73
2021/09/03 01:17:31;;;;;;;;;;;24.00;45.30;;;;;;496055;236;1309;-72
2021/09/03 01:19:32;;;;;;;;;;;24.00;44.80;;;;;;496049;240;2146;-72
2021/09/03 01:21:33;;;;;;;;;;;24.00;45.20;;;;;;495987;240;1118;-72
2021/09/03 01:23:35;;;;;;;;;;;24.00;45.10;;;;;;495991;240;1357;-72
2021/09/03 01:25:36;;;;;;;;;;;23.90;44.70;;;;;;495994;240;1034;-72
2021/09/03 01:27:38;;;;;;;;;;;24.00;45.10;;;;;;495958;240;1062;-72
2021/09/03 01:29:39;;;;;;;;;;;23.80;45.40;;;;;;496026;240;1406;-72
2021/09/03 01:31:40;;;;;;;;;;;24.10;44.70;;;;;;495937;240;1172;-73
2021/09/03 01:33:41;;;;;;;;;;;24.10;44.90;;;;;;496001;240;1288;-73
2021/09/03 01:35:43;;;;;;;;;;;23.80;45.00;;;;;;495951;240;1039;-72
2021/09/03 01:37:44;;;;;;;;;;;24.10;44.70;;;;;;496027;240;1076;-72
2021/09/03 01:39:46;;;;;;;;;;;23.90;45.40;;;;;;496022;240;2178;-72
2021/09/03 01:41:47;;;;;;;;;;;23.50;45.30;;;;;;495947;240;1086;-72
2021/09/03 01:43:48;;;;;;;;;;;24.30;44.60;;;;;;496004;240;1135;-72
2021/09/03 01:45:50;;;;;;;;;;;23.70;45.60;;;;;;495985;240;1123;-73
2021/09/03 01:47:51;;;;;;;;;;;24.00;44.60;;;;;;496015;240;1198;-73
2021/09/03 01:49:52;;;;;;;;;;;24.00;45.00;;;;;;495993;240;1124;-73
2021/09/03 01:51:54;;;;;;;;;;;23.80;45.20;;;;;;495906;240;1034;-72
2021/09/03 01:53:55;;;;;;;;;;;24.10;44.40;;;;;;495949;236;1251;-73
2021/09/03 01:55:56;;;;;;;;;;;23.80;45.40;;;;;;495986;240;1038;-72
2021/09/03 01:57:58;;;;;;;;;;;23.50;45.50;;;;;;496002;240;1170;-73
2021/09/03 01:59:59;;;;;;;;;;;24.00;44.70;;;;;;496043;240;2166;-73
2021/09/03 02:02:00;;;;;;;;;;;23.80;45.30;;;;;;495969;240;1195;-72
2021/09/03 02:04:02;;;;;;;;;;;23.50;45.20;;;;;;496034;240;1268;-73
2021/09/03 02:06:03;;;;;;;;;;;24.10;44.80;;;;;;495911;240;1310;-72
2021/09/03 02:08:05;;;;;;;;;;;23.80;45.20;;;;;;496014;240;1053;-73
2021/09/03 02:10:06;;;;;;;;;;;23.90;44.70;;;;;;495949;240;1243;-72
2021/09/03 02:12:12;;;;;;;;;;;24.20;44.40;;;;;;496004;240;1098;-72
2021/09/03 02:14:09;;;;;;;;;;;23.80;45.10;;;;;;495629;240;1384;-72
2021/09/03 02:16:10;;;;;;;;;;;23.80;44.60;;;;;;496018;240;1079;-72
2021/09/03 02:18:11;;;;;;;;;;;24.10;44.70;;;;;;496012;240;1121;-72
2021/09/03 02:20:13;;;;;;;;;;;23.80;45.10;;;;;;496054;240;2185;-72
2021/09/03 02:22:14;;;;;;;;;;;23.80;44.40;;;;;;495993;240;1114;-72
2021/09/03 02:24:15;;;;;;;;;;;24.00;44.60;;;;;;496020;240;952;-72
2021/09/03 02:26:17;;;;;;;;;;;23.90;44.60;;;;;;495968;240;1161;-72
2021/09/03 02:28:18;;;;;;;;;;;23.90;44.00;;;;;;495996;240;1009;-72
2021/09/03 02:30:19;;;;;;;;;;;24.10;44.20;;;;;;496080;240;1105;-72
2021/09/03 02:32:21;;;;;;;;;;;23.90;44.50;;;;;;496020;240;1186;-72
2021/09/03 02:34:22;;;;;;;;;;;24.10;43.70;;;;;;496052;240;1181;-72
2021/09/03 02:36:23;;;;;;;;;;;24.10;44.00;;;;;;495920;240;1324;-72
2021/09/03 02:38:25;;;;;;;;;;;23.70;44.40;;;;;;495973;240;1421;-72
2021/09/03 02:40:26;;;;;;;;;;;24.00;44.00;;;;;;496047;240;2139;-72
2021/09/03 02:42:27;;;;;;;;;;;24.00;44.40;;;;;;495979;240;1104;-73
2021/09/03 02:44:29;;;;;;;;;;;23.70;44.50;;;;;;496025;240;980;-72
2021/09/03 02:46:30;;;;;;;;;;;24.20;43.90;;;;;;495940;240;1201;-72
2021/09/03 02:48:31;;;;;;;;;;;24.10;44.10;;;;;;495950;240;1142;-72
2021/09/03 02:50:33;;;;;;;;;;;24.00;43.70;;;;;;495989;240;1000;-72
2021/09/03 02:52:34;;;;;;;;;;;24.10;44.10;;;;;;495991;240;1111;-73
2021/09/03 02:54:35;;;;;;;;;;;23.90;44.30;;;;;;496043;240;990;-73
2021/09/03 02:56:37;;;;;;;;;;;24.20;43.70;;;;;;496081;240;1256;-72
2021/09/03 02:58:38;;;;;;;;;;;24.00;44.40;;;;;;496039;240;1055;-72
2021/09/03 03:00:39;;;;;;;;;;;23.70;44.30;;;;;;496069;240;2138;-72
2021/09/03 03:02:41;;;;;;;;;;;24.30;43.70;;;;;;495989;240;1061;-72
2021/09/03 03:04:42;;;;;;;;;;;23.80;44.40;;;;;;496007;240;1156;-72
2021/09/03 03:06:43;;;;;;;;;;;23.90;43.80;;;;;;495968;236;1249;-72
2021/09/03 03:08:45;;;;;;;;;;;24.10;44.00;;;;;;496032;240;979;-72
2021/09/03 03:10:46;;;;;;;;;;;23.90;44.30;;;;;;496094;240;1050;-72
2021/09/03 03:12:52;;;;;;;;;;;24.00;43.90;;;;;;496004;240;1259;-73
2021/09/03 03:14:49;;;;;;;;;;;24.20;43.80;;;;;;495667;240;1454;-72
2021/09/03 03:16:50;;;;;;;;;;;23.90;44.00;;;;;;496061;240;1185;-72
2021/09/03 03:18:52;;;;;;;;;;;24.20;43.40;;;;;;496034;240;1198;-72
2021/09/03 03:20:53;;;;;;;;;;;24.30;43.60;;;;;;495980;240;2193;-73
2021/09/03 03:22:54;;;;;;;;;;;24.00;43.90;;;;;;496016;240;1054;-72
2021/09/03 03:24:56;;;;;;;;;;;24.30;43.30;;;;;;495995;240;1016;-72
2021/09/03 03:26:57;;;;;;;;;;;24.10;43.90;;;;;;495991;240;1100;-72
2021/09/03 03:28:58;;;;;;;;;;;23.60;44.10;;;;;;495986;240;1041;-72
2021/09/03 03:30:59;;;;;;;;;;;24.10;43.80;;;;;;495971;240;1127;-73
2021/09/03 03:33:01;;;;;;;;;;;23.80;44.40;;;;;;495945;240;998;-73
2021/09/03 03:35:02;;;;;;;;;;;23.80;43.70;;;;;;495978;240;1131;-72
2021/09/03 03:37:04;;;;;;;;;;;24.20;43.70;;;;;;495979;240;1131;-73
2021/09/03 03:39:05;;;;;;;;;;;23.60;44.30;;;;;;496035;240;1176;-72
2021/09/03 03:41:06;;;;;;;;;;;23.50;45.20;;;;;;495991;240;2191;-72
2021/09/03 03:43:07;;;;;;;;;;;23.40;44.90;;;;;;495918;240;1197;-72
2021/09/03 03:45:09;;;;;;;;;;;23.80;44.20;;;;;;496050;240;1015;-72
2021/09/03 03:47:10;;;;;;;;;;;23.90;44.20;;;;;;495935;240;1132;-72
2021/09/03 03:49:11;;;;;;;;;;;24.00;43.60;;;;;;496044;240;1065;-72
2021/09/03 03:51:13;;;;;;;;;;;24.10;43.40;;;;;;496044;240;1197;-72
2021/09/03 03:53:14;;;;;;;;;;;24.10;43.40;;;;;;496034;240;1073;-72
2021/09/03 03:55:15;;;;;;;;;;;24.00;43.50;;;;;;496054;240;952;-72
2021/09/03 03:57:17;;;;;;;;;;;24.10;43.50;;;;;;495945;240;1135;-73
2021/09/03 03:59:18;;;;;;;;;;;24.20;43.20;;;;;;495964;240;1053;-73
2021/09/03 04:01:19;;;;;;;;;;;24.10;43.30;;;;;;495951;240;2185;-72
2021/09/03 04:03:21;;;;;;;;;;;24.20;43.20;;;;;;495959;240;1177;-72
2021/09/03 04:05:22;;;;;;;;;;;24.20;43.30;;;;;;496006;240;1152;-72
2021/09/03 04:07:23;;;;;;;;;;;24.30;43.20;;;;;;495967;240;1187;-72
2021/09/03 04:09:25;;;;;;;;;;;24.40;42.90;;;;;;495985;240;1051;-72
2021/09/03 04:11:26;;;;;;;;;;;24.30;43.30;;;;;;496030;240;1231;-72
2021/09/03 04:13:27;;;;;;;;;;;23.90;43.60;;;;;;496024;240;1038;-72
2021/09/03 04:15:29;;;;;;;;;;;24.30;43.20;;;;;;495978;240;955;-73
2021/09/03 04:17:30;;;;;;;;;;;24.10;43.50;;;;;;495963;240;1318;-72
2021/09/03 04:19:31;;;;;;;;;;;24.10;43.50;;;;;;495989;240;961;-72
2021/09/03 04:21:32;;;;;;;;;;;24.10;43.60;;;;;;495850;240;2181;-73
2021/09/03 04:23:34;;;;;;;;;;;23.90;43.60;;;;;;495843;240;1267;-72
2021/09/03 04:25:35;;;;;;;;;;;24.20;43.20;;;;;;495884;240;1233;-72
2021/09/03 04:27:37;;;;;;;;;;;24.00;43.70;;;;;;495819;240;1131;-72
2021/09/03 04:29:38;;;;;;;;;;;24.00;43.40;;;;;;495786;240;1084;-73
2021/09/03 04:31:39;;;;;;;;;;;24.40;43.10;;;;;;495895;237;1324;-72
2021/09/03 04:33:41;;;;;;;;;;;24.20;43.20;;;;;;495924;240;1040;-72
2021/09/03 04:35:42;;;;;;;;;;;24.10;43.20;;;;;;495918;240;1496;-72
2021/09/03 04:37:43;;;;;;;;;;;24.10;43.20;;;;;;495760;240;1126;-72
2021/09/03 04:39:45;;;;;;;;;;;23.90;43.40;;;;;;495836;240;960;-72
2021/09/03 04:41:46;;;;;;;;;;;24.20;43.20;;;;;;495999;240;2131;-72
2021/09/03 04:43:47;;;;;;;;;;;24.40;42.70;;;;;;495936;240;950;-72
2021/09/03 04:45:49;;;;;;;;;;;24.50;42.40;;;;;;495928;240;1094;-72
2021/09/03 04:47:50;;;;;;;;;;;24.60;42.30;;;;;;495960;240;992;-72
2021/09/03 04:49:51;;;;;;;;;;;24.40;42.50;;;;;;495930;240;1172;-72
2021/09/03 04:51:53;;;;;;;;;;;24.30;42.50;;;;;;495841;240;1220;-72
2021/09/03 04:53:54;;;;;;;;;;;24.00;43.20;;;;;;495816;240;955;-72
2021/09/03 04:55:56;;;;;;;;;;;24.20;42.70;;;;;;495780;240;1029;-72
2021/09/03 04:57:57;;;;;;;;;;;24.00;43.00;;;;;;495761;240;1119;-72
2021/09/03 04:59:58;;;;;;;;;;;24.30;42.70;;;;;;495812;240;1039;-72
2021/09/03 05:01:59;;;;;;;;;;;24.00;43.10;;;;;;495899;240;2183;-72
2021/09/03 05:04:01;;;;;;;;;;;24.20;42.90;;;;;;495936;240;1431;-72
2021/09/03 05:06:02;;;;;;;;;;;24.10;43.10;;;;;;495868;240;1429;-72
2021/09/03 05:08:03;;;;;;;;;;;24.20;42.90;;;;;;495803;240;1077;-72
2021/09/03 05:10:04;;;;;;;;;;;24.20;43.00;;;;;;495841;240;971;-72
2021/09/03 05:12:06;;;;;;;;;;;24.00;43.10;;;;;;495926;240;1115;-72
2021/09/03 05:14:07;;;;;;;;;;;24.10;42.70;;;;;;495875;240;944;-72
2021/09/03 05:16:08;;;;;;;;;;;24.20;42.90;;;;;;495826;240;1072;-72
2021/09/03 05:18:10;;;;;;;;;;;23.80;43.40;;;;;;495647;240;1015;-72
2021/09/03 05:20:11;;;;;;;;;;;23.80;43.10;;;;;;495762;240;1008;-72
2021/09/03 05:22:12;;;;;;;;;;;24.10;42.90;;;;;;495665;240;2190;-72
2021/09/03 05:24:14;;;;;;;;;;;24.20;42.70;;;;;;495707;240;999;-72
2021/09/03 05:26:15;;;;;;;;;;;24.20;42.50;;;;;;495737;240;1058;-72
2021/09/03 05:28:16;;;;;;;;;;;24.10;42.80;;;;;;495777;240;1042;-72
2021/09/03 05:30:18;;;;;;;;;;;24.10;43.00;;;;;;495793;240;1377;-72
2021/09/03 05:32:19;;;;;;;;;;;23.70;43.30;;;;;;495715;240;1078;-72
2021/09/03 05:34:20;;;;;;;;;;;24.10;42.70;;;;;;495794;240;1026;-72
2021/09/03 05:36:22;;;;;;;;;;;24.20;42.70;;;;;;495790;240;1130;-72
2021/09/03 05:38:23;;;;;;;;;;;24.10;42.60;;;;;;495750;240;1104;-72
2021/09/03 05:40:24;;;;;;;;;;;24.60;42.40;;;;;;495772;240;1308;-72
2021/09/03 05:42:26;;;;;;;;;;;23.80;43.00;;;;;;495853;240;2178;-72
2021/09/03 05:44:27;;;;;;;;;;;24.10;43.10;;;;;;495861;240;1034;-72
2021/09/03 05:46:29;;;;;;;;;;;24.00;43.30;;;;;;495757;240;1060;-72
2021/09/03 05:48:30;;;;;;;;;;;23.80;43.50;;;;;;495735;240;1060;-72
2021/09/03 05:50:31;;;;;;;;;;;24.00;43.20;;;;;;495700;240;1127;-72
2021/09/03 05:52:33;;;;;;;;;;;24.00;43.60;;;;;;495628;240;1182;-72
2021/09/03 05:54:34;;;;;;;;;;;23.70;43.70;;;;;;495747;240;1040;-72
2021/09/03 05:56:35;;;;;;;;;;;24.00;43.30;;;;;;495650;240;1058;-72
2021/09/03 05:58:37;;;;;;;;;;;24.00;43.20;;;;;;495721;240;1120;-72
2021/09/03 06:00:38;;;;;;;;;;;24.00;43.50;;;;;;495668;240;970;-72
2021/09/03 06:02:39;;;;;;;;;;;23.90;43.50;;;;;;495509;240;2125;-72
2021/09/03 06:04:41;;;;;;;;;;;24.30;43.30;;;;;;495278;240;1004;-72
2021/09/03 06:06:42;;;;;;;;;;;23.90;43.60;;;;;;495195;240;1475;-72
2021/09/03 06:08:43;;;;;;;;;;;24.20;43.30;;;;;;495546;240;1118;-72
2021/09/03 06:10:45;;;;;;;;;;;24.10;43.70;;;;;;495305;240;981;-72
2021/09/03 06:12:46;;;;;;;;;;;24.10;43.60;;;;;;495422;240;1110;-72
2021/09/03 06:14:47;;;;;;;;;;;24.10;43.60;;;;;;495404;240;1108;-72
2021/09/03 06:16:49;;;;;;;;;;;24.30;43.60;;;;;;495363;240;1367;-73
2021/09/03 06:18:50;;;;;;;;;;;23.90;44.10;;;;;;495298;240;1049;-73
2021/09/03 06:20:51;;;;;;;;;;;24.10;43.80;;;;;;495276;240;1072;-73
2021/09/03 06:22:53;;;;;;;;;;;24.10;44.30;;;;;;495325;240;2190;-73
2021/09/03 06:24:54;;;;;;;;;;;23.80;44.60;;;;;;495275;240;1044;-73
2021/09/03 06:26:55;;;;;;;;;;;24.20;44.00;;;;;;495204;240;1142;-73
2021/09/03 06:28:57;;;;;;;;;;;23.80;45.00;;;;;;495226;240;1018;-72
2021/09/03 06:30:58;;;;;;;;;;;23.60;45.10;;;;;;495302;240;1132;-72
2021/09/03 06:32:59;;;;;;;;;;;23.60;44.90;;;;;;495966;240;741;-72
2021/09/03 06:35:01;;;;;;;;;;;23.70;45.00;;;;;;495551;240;1307;-72
2021/09/03 06:37:02;;;;;;;;;;;23.60;45.10;;;;;;495410;240;1364;-72
2021/09/03 06:39:03;;;;;;;;;;;23.80;45.50;;;;;;495473;240;1174;-72
2021/09/03 06:41:05;;;;;;;;;;;23.70;45.20;;;;;;495509;240;1765;-72
2021/09/03 06:43:06;;;;;;;;;;;23.90;44.90;;;;;;495892;240;2189;-72
2021/09/03 06:45:09;;;;;;;;;;;23.60;45.20;;;;;;495898;240;863;-72
2021/09/03 06:47:11;;;;;;;;;;;23.60;45.50;;;;;;495699;240;1332;-72
2021/09/03 06:49:10;;;;;;;;;;;23.90;45.30;;;;;;495158;240;1545;-72
2021/09/03 06:51:11;;;;;;;;;;;24.00;45.20;;;;;;495883;240;601;-72
2021/09/03 06:53:12;;;;;;;;;;;23.80;45.40;;;;;;495546;240;1117;-72
2021/09/03 06:55:14;;;;;;;;;;;24.00;45.20;;;;;;495545;240;793;-72
2021/09/03 06:57:15;;;;;;;;;;;23.90;45.40;;;;;;495419;240;795;-72
2021/09/03 06:59:16;;;;;;;;;;;23.90;45.50;;;;;;495450;240;812;-73
2021/09/03 07:01:18;;;;;;;;;;;23.70;45.90;;;;;;495363;240;1239;-73
2021/09/03 07:03:19;;;;;;;;;;;24.00;45.60;;;;;;495752;240;2170;-73
2021/09/03 07:05:20;;;;;;;;;;;23.90;46.10;;;;;;495901;240;747;-73
2021/09/03 07:07:22;;;;;;;;;;;23.80;46.00;;;;;;495622;240;992;-73
2021/09/03 07:09:23;;;;;;;;;;;23.90;45.90;;;;;;495796;240;786;-73
2021/09/03 07:11:24;;;;;;;;;;;23.90;46.20;;;;;;495561;240;1246;-73
2021/09/03 07:13:26;;;;;;;;;;;23.70;46.40;;;;;;495263;240;759;-73
2021/09/03 07:15:27;;;;;;;;;;;24.00;46.00;;;;;;494914;240;1340;-73
2021/09/03 07:17:28;;;;;;;;;;;23.70;46.20;;;;;;495192;240;1091;-73
2021/09/03 07:19:30;;;;;;;;;;;24.20;45.80;;;;;;495598;240;776;-73
2021/09/03 07:21:31;;;;;;;;;;;23.90;45.80;;;;;;495283;240;1152;-73
2021/09/03 07:23:32;;;;;;;;;;;24.20;46.00;;;;;;495255;240;1078;-73
2021/09/03 07:25:34;;;;;;;;;;;24.00;46.10;;;;;;495645;240;1418;-73
2021/09/03 07:27:35;;;;;;;;;;;23.80;46.80;;;;;;495651;240;705;-72
2021/09/03 07:29:36;;;;;;;;;;;24.10;46.50;;;;;;495201;240;851;-72
2021/09/03 07:31:37;;;;;;;;;;;23.80;46.90;;;;;;495686;240;1149;-72
2021/09/03 07:33:39;;;;;;;;;;;24.00;46.80;;;;;;495091;240;772;-72
2021/09/03 07:35:40;;;;;;;;;;;23.70;47.10;;;;;;495443;240;1490;-72
2021/09/03 07:37:41;;;;;;;;;;;24.10;46.70;;;;;;495088;240;1079;-72
2021/09/03 07:39:43;;;;;;;;;;;24.10;46.30;;;;;;495248;240;780;-72
2021/09/03 07:41:44;;;;;;;;;;;24.30;46.00;;;;;;495427;240;2185;-72
2021/09/03 07:43:45;;;;;;;;;;;23.80;47.10;;;;;;495112;240;792;-72
2021/09/03 07:45:47;;;;;;;;;;;24.00;46.70;;;;;;495483;240;1337;-72
2021/09/03 07:47:48;;;;;;;;;;;23.90;46.90;;;;;;495536;240;1060;-72
2021/09/03 07:49:49;;;;;;;;;;;23.70;47.00;;;;;;495113;240;796;-72
2021/09/03 07:51:51;;;;;;;;;;;23.70;47.20;;;;;;495454;240;1168;-73
2021/09/03 07:53:53;;;;;;;;;;;23.70;47.50;;;;;;494869;240;1122;-73
2021/09/03 07:55:54;;;;;;;;;;;24.00;46.90;;;;;;494899;240;1517;-73
2021/09/03 07:57:55;;;;;;;;;;;24.00;46.90;;;;;;495494;240;1072;-73
2021/09/03 07:59:56;;;;;;;;;;;23.70;47.30;;;;;;495055;240;804;-73
2021/09/03 08:01:57;;;;;;;;;;;23.80;47.60;;;;;;495394;236;2185;-73
2021/09/03 08:03:59;;;;;;;;;;;23.90;47.90;;;;;;495010;240;769;-73
2021/09/03 08:06:00;;;;;;;;;;;23.90;47.70;;;;;;494984;240;1420;-73
2021/09/03 08:08:01;;;;;;;;;;;23.90;47.60;;;;;;494871;240;1081;-72
2021/09/03 08:10:03;;;;;;;;;;;24.10;47.20;;;;;;495322;240;1042;-72
2021/09/03 08:12:04;;;;;;;;;;;24.10;47.40;;;;;;494932;240;1094;-72
2021/09/03 08:14:05;;;;;;;;;;;24.00;47.50;;;;;;494963;240;840;-72
2021/09/03 08:16:07;;;;;;;;;;;23.70;47.70;;;;;;495007;240;734;-72
2021/09/03 08:18:08;;;;;;;;;;;24.00;47.30;;;;;;495528;240;805;-72
2021/09/03 08:20:09;;;;;;;;;;;24.20;47.40;;;;;;495125;240;836;-72
2021/09/03 08:22:11;;;;;;;;;;;24.00;47.30;;;;;;495432;240;2189;-72
2021/09/03 08:24:12;;;;;;;;;;;24.30;47.30;;;;;;495115;240;1088;-72
2021/09/03 08:26:13;;;;;;;;;;;24.60;46.60;;;;;;495436;240;827;-72
2021/09/03 08:28:15;;;;;;;;;;;24.60;46.20;;;;;;495573;240;1085;-72
2021/09/03 08:30:16;;;;;;;;;;;24.60;46.40;;;;;;495109;240;787;-72
2021/09/03 08:32:17;;;;;;;;;;;24.60;46.40;;;;;;495067;240;1161;-73
2021/09/03 08:34:18;;;;;;;;;;;24.60;46.60;;;;;;495095;240;843;-72
2021/09/03 08:36:20;;;;;;;;;;;24.10;47.90;;;;;;495011;240;793;-72
2021/09/03 08:38:21;;;;;;;;;;;24.30;47.30;;;;;;495044;240;1038;-73
2021/09/03 08:40:22;;;;;;;;;;;24.30;47.30;;;;;;495573;240;808;-73
2021/09/03 08:42:24;;;;;;;;;;;24.00;48.20;;;;;;495377;236;2188;-73
2021/09/03 08:44:25;;;;;;;;;;;24.10;48.10;;;;;;494852;240;729;-73
2021/09/03 08:46:29;;;;;;;;;;;24.10;48.00;;;;;;495196;240;1384;-73
2021/09/03 08:48:31;;;;;;;;;;;24.00;47.90;;;;;;494176;240;928;-73
2021/09/03 08:50:32;;;;;;;;;;;24.20;47.90;;;;;;494680;240;821;-73
2021/09/03 08:52:33;;;;;;;;;;;24.30;47.70;;;;;;495322;240;1177;-73
2021/09/03 08:54:34;;;;;;;;;;;24.10;47.80;;;;;;494890;240;1095;-73
2021/09/03 08:56:36;;;;;;;;;;;24.10;47.60;;;;;;494451;240;1403;-73
2021/09/03 08:58:37;;;;;;;;;;;24.30;47.70;;;;;;495497;240;777;-73
2021/09/03 09:00:38;;;;;;;;;;;24.10;47.80;;;;;;495030;240;786;-73
2021/09/03 09:02:40;;;;;;;;;;;24.40;47.70;;;;;;494966;240;2186;-73
2021/09/03 09:04:41;;;;;;;;;;;24.20;47.70;;;;;;495515;240;861;-73
2021/09/03 09:06:42;;;;;;;;;;;24.30;47.90;;;;;;495414;240;1341;-73
2021/09/03 09:08:43;;;;;;;;;;;24.30;48.10;;;;;;495352;240;1110;-73
2021/09/03 09:10:45;;;;;;;;;;;24.20;47.70;;;;;;494904;240;783;-73
2021/09/03 09:12:46;;;;;;;;;;;24.40;47.90;;;;;;495442;240;1205;-72
2021/09/03 09:14:47;;;;;;;;;;;24.30;48.00;;;;;;495258;240;1311;-72
2021/09/03 09:16:49;;;;;;;;;;;24.10;48.30;;;;;;494952;240;1766;-72
2021/09/03 09:18:50;;;;;;;;;;;24.40;47.80;;;;;;495040;240;697;-72
2021/09/03 09:20:51;;;;;;;;;;;24.50;47.60;;;;;;495503;240;776;-72
2021/09/03 09:22:54;;;;;;;;;;;24.10;48.40;;;;;;495011;240;2194;-73
2021/09/03 09:24:55;;;;;;;;;;;24.00;48.60;;;;;;495091;240;1051;-73
2021/09/03 09:26:57;;;;;;;;;;;24.10;48.20;;;;;;495527;240;1248;-73
2021/09/03 09:28:58;;;;;;;;;;;24.40;47.90;;;;;;495009;240;788;-72
2021/09/03 09:30:59;;;;;;;;;;;24.00;48.50;;;;;;494977;240;686;-72
2021/09/03 09:33:01;;;;;;;;;;;24.50;47.80;;;;;;495287;240;1041;-72
2021/09/03 09:35:02;;;;;;;;;;;24.50;47.90;;;;;;494930;240;845;-72
2021/09/03 09:37:03;;;;;;;;;;;24.10;48.10;;;;;;495100;240;1244;-72
2021/09/03 09:39:05;;;;;;;;;;;24.30;47.90;;;;;;495568;240;1103;-72
2021/09/03 09:41:07;;;;;;;;;;;24.70;47.30;;;;;;495710;236;1442;-72
2021/09/03 09:43:07;;;;;;;;;;;24.40;47.20;;;;;;495186;240;2174;-72
2021/09/03 09:45:09;;;;;;;;;;;24.20;48.20;;;;;;495060;240;1081;-72
2021/09/03 09:47:12;;;;;;;;;;;24.40;48.00;;;;;;495000;240;1088;-72
2021/09/03 09:49:11;;;;;;;;;;;24.40;47.80;;;;;;495065;240;1318;-72
2021/09/03 09:51:13;;;;;;;;;;;24.40;48.00;;;;;;495103;240;1455;-72
2021/09/03 09:53:16;;;;;;;;;;;24.10;48.10;;;;;;495219;240;1107;-73
2021/09/03 09:55:16;;;;;;;;;;;24.10;48.20;;;;;;495036;240;1343;-73
2021/09/03 09:57:17;;;;;;;;;;;24.30;48.10;;;;;;495023;240;1190;-73
2021/09/03 09:59:18;;;;;;;;;;;24.10;48.80;;;;;;495040;240;1120;-73
2021/09/03 10:01:20;;;;;;;;;;;24.00;48.70;;;;;;495025;240;1186;-73
2021/09/03 10:03:21;;;;;;;;;;;24.10;48.60;;;;;;495035;240;2174;-73
2021/09/03 10:05:23;;;;;;;;;;;24.20;48.80;;;;;;494973;240;1084;-73
2021/09/03 10:07:23;;;;;;;;;;;24.30;48.70;;;;;;495092;240;1216;-72
2021/09/03 10:09:25;;;;;;;;;;;24.50;48.10;;;;;;495371;240;1138;-72
2021/09/03 10:11:26;;;;;;;;;;;24.50;48.10;;;;;;495265;240;1079;-72
2021/09/03 10:13:27;;;;;;;;;;;24.30;48.80;;;;;;495318;240;1161;-72
2021/09/03 10:15:29;;;;;;;;;;;24.30;48.50;;;;;;495181;240;1018;-72
2021/09/03 10:17:32;;;;;;;;;;;24.40;48.70;;;;;;495236;240;1135;-72
2021/09/03 10:19:32;;;;;;;;;;;24.10;49.10;;;;;;495066;240;1331;-72
2021/09/03 10:21:36;;;;;;;;;;;24.40;48.30;;;;;;495208;240;1050;-72
2021/09/03 10:23:35;;;;;;;;;;;24.30;48.60;;;;;;494659;240;2194;-72
2021/09/03 10:25:37;;;;;;;;;;;24.50;48.10;;;;;;494602;240;1172;-72
2021/09/03 10:27:38;;;;;;;;;;;24.60;48.10;;;;;;495266;240;1070;-72
2021/09/03 10:29:39;;;;;;;;;;;24.00;48.60;;;;;;495243;240;1083;-72
2021/09/03 10:31:41;;;;;;;;;;;24.00;48.80;;;;;;495200;240;1114;-72
2021/09/03 10:33:42;;;;;;;;;;;24.20;48.70;;;;;;495153;240;1035;-72
2021/09/03 10:35:43;;;;;;;;;;;24.30;48.20;;;;;;495118;240;1109;-72
2021/09/03 10:37:45;;;;;;;;;;;24.40;48.50;;;;;;495090;240;1076;-72
2021/09/03 10:39:46;;;;;;;;;;;24.30;48.10;;;;;;495239;240;1199;-72
2021/09/03 10:41:47;;;;;;;;;;;24.40;48.10;;;;;;495196;240;1081;-72
2021/09/03 10:43:49;;;;;;;;;;;24.60;47.70;;;;;;494561;240;2186;-72
2021/09/03 10:45:50;;;;;;;;;;;24.40;48.20;;;;;;494814;240;1297;-72
2021/09/03 10:47:51;;;;;;;;;;;24.50;48.20;;;;;;495202;240;1070;-72
2021/09/03 10:49:53;;;;;;;;;;;24.60;48.10;;;;;;495149;240;1080;-72
2021/09/03 10:51:54;;;;;;;;;;;24.50;48.20;;;;;;495124;240;1088;-72
2021/09/03 10:53:55;;;;;;;;;;;24.50;48.30;;;;;;494847;240;1067;-72
2021/09/03 10:55:57;;;;;;;;;;;24.50;48.30;;;;;;494907;240;1168;-72
2021/09/03 10:57:58;;;;;;;;;;;24.50;48.40;;;;;;494933;240;1087;-72
2021/09/03 10:59:59;;;;;;;;;;;24.30;48.20;;;;;;495220;240;1101;-72
2021/09/03 11:02:01;;;;;;;;;;;24.50;48.10;;;;;;494902;240;1042;-72
2021/09/03 11:04:02;;;;;;;;;;;24.40;48.40;;;;;;495010;240;2190;-72
2021/09/03 11:06:03;;;;;;;;;;;24.30;48.40;;;;;;494915;240;1201;-72
2021/09/03 11:08:05;;;;;;;;;;;24.30;48.10;;;;;;495002;240;1169;-72
2021/09/03 11:10:06;;;;;;;;;;;24.40;48.20;;;;;;494896;240;1104;-72
2021/09/03 11:12:09;;;;;;;;;;;24.50;48.20;;;;;;494280;240;1307;-72
2021/09/03 11:14:09;;;;;;;;;;;24.60;48.20;;;;;;494912;240;1415;-72
2021/09/03 11:16:10;;;;;;;;;;;24.50;48.10;;;;;;495022;238;1196;-72
2021/09/03 11:18:12;;;;;;;;;;;24.70;47.70;;;;;;495100;240;1099;-72
2021/09/03 11:20:13;;;;;;;;;;;24.60;48.20;;;;;;495086;240;1089;-72
2021/09/03 11:22:14;;;;;;;;;;;24.50;48.10;;;;;;495143;240;1248;-72
2021/09/03 11:24:16;;;;;;;;;;;24.50;47.90;;;;;;495163;240;2218;-72
2021/09/03 11:26:17;;;;;;;;;;;24.60;48.00;;;;;;495241;240;1310;-72
2021/09/03 11:28:18;;;;;;;;;;;24.40;48.60;;;;;;495196;240;1068;-72
2021/09/03 11:30:19;;;;;;;;;;;24.10;48.70;;;;;;495100;240;1154;-72
2021/09/03 11:32:21;;;;;;;;;;;24.40;48.40;;;;;;495182;240;1230;-72
2021/09/03 11:34:22;;;;;;;;;;;24.30;48.60;;;;;;495203;240;1021;-72
2021/09/03 11:36:23;;;;;;;;;;;24.30;48.40;;;;;;495209;240;1059;-72
2021/09/03 11:38:25;;;;;;;;;;;24.20;48.50;;;;;;495484;240;727;-72
2021/09/03 11:40:26;;;;;;;;;;;24.30;48.10;;;;;;495064;240;1330;-72
2021/09/03 11:42:27;;;;;;;;;;;25.00;47.40;;;;;;495142;240;1186;-72
2021/09/03 11:44:29;;;;;;;;;;;24.00;48.50;;;;;;495294;240;2177;-72
2021/09/03 11:46:30;;;;;;;;;;;24.40;48.20;;;;;;495233;240;1887;-72
2021/09/03 11:48:31;;;;;;;;;;;24.30;48.50;;;;;;495683;240;1234;-72
2021/09/03 11:50:33;;;;;;;;;;;24.40;48.00;;;;;;495299;240;778;-72
2021/09/03 11:52:34;;;;;;;;;;;24.50;48.10;;;;;;495672;240;1232;-72
2021/09/03 11:54:35;;;;;;;;;;;24.50;48.00;;;;;;495638;240;1077;-72
2021/09/03 11:56:37;;;;;;;;;;;24.50;47.80;;;;;;495258;240;1230;-72
2021/09/03 11:58:38;;;;;;;;;;;24.40;48.10;;;;;;495718;240;1325;-72